createdAt,value
2022-08-29T00:00:54.135Z,12.34
2022-08-29T00:03:58.035Z,12.31
2022-08-29T00:06:59.778Z,12.28
2022-08-29T00:10:01.616Z,12.28
2022-08-29T00:13:05.489Z,12.30
2022-08-29T00:16:08.587Z,12.26
2022-08-29T00:19:10.389Z,12.21
2022-08-29T00:22:12.062Z,12.19
2022-08-29T00:25:14.469Z,12.15
2022-08-29T00:28:16.372Z,12.11
2022-08-29T00:31:18.227Z,12.05
2022-08-29T00:34:19.997Z,12.01
2022-08-29T00:37:21.697Z,11.95
2022-08-29T00:40:31.485Z,11.92
2022-08-29T00:43:36.223Z,11.89
2022-08-29T00:46:50.859Z,11.86
2022-08-29T00:49:55.782Z,11.83
2022-08-29T00:52:59.292Z,11.80
2022-08-29T00:56:03.793Z,11.78
2022-08-29T00:59:26.015Z,11.75
2022-08-29T01:02:29.488Z,11.74
2022-08-29T01:05:32.003Z,11.72
2022-08-29T01:08:33.839Z,11.70
2022-08-29T01:11:54.743Z,11.68
2022-08-29T01:15:01.265Z,11.67
2022-08-29T01:18:06.283Z,11.63
2022-08-29T01:21:14.245Z,11.62
2022-08-29T01:24:15.929Z,11.59
2022-08-29T01:27:20.882Z,11.60
2022-08-29T01:30:22.809Z,11.57
2022-08-29T01:33:24.577Z,11.56
2022-08-29T01:36:33.287Z,11.55
2022-08-29T01:39:45.225Z,11.54
2022-08-29T01:42:49.356Z,11.58
2022-08-29T01:45:51.151Z,11.56
2022-08-29T01:48:53.432Z,11.54
2022-08-29T01:51:55.185Z,11.57
2022-08-29T01:54:56.875Z,11.58
2022-08-29T01:57:58.580Z,11.57
2022-08-29T02:01:00.324Z,11.55
2022-08-29T02:04:02.256Z,11.57
2022-08-29T02:07:04.028Z,11.54
2022-08-29T02:10:07.050Z,11.54
2022-08-29T02:13:08.748Z,11.49
2022-08-29T02:16:10.459Z,11.48
2022-08-29T02:19:12.221Z,11.48
2022-08-29T02:22:14.279Z,11.46
2022-08-29T02:25:34.577Z,11.47
2022-08-29T02:28:37.835Z,11.45
2022-08-29T02:31:40.935Z,11.46
2022-08-29T02:34:44.665Z,11.42
2022-08-29T02:37:49.482Z,11.43
2022-08-29T02:40:51.684Z,11.42
2022-08-29T02:43:53.485Z,11.42
2022-08-29T02:46:55.332Z,11.41
2022-08-29T02:49:57.143Z,11.43
2022-08-29T02:53:01.460Z,11.44
2022-08-29T02:56:03.509Z,11.48
2022-08-29T02:59:05.504Z,11.51
2022-08-29T03:02:07.625Z,11.52
2022-08-29T03:05:10.129Z,11.53
2022-08-29T03:08:16.272Z,11.51
2022-08-29T03:13:06.792Z,11.48
2022-08-29T03:15:19.975Z,11.46
2022-08-29T03:18:22.067Z,11.38
2022-08-29T03:22:22.082Z,11.44
2022-08-29T03:35:44.710Z,11.47
2022-08-29T03:49:29.121Z,11.61
2022-08-29T03:51:38.366Z,11.69
2022-08-29T03:55:35.699Z,11.78
2022-08-29T04:03:30.908Z,11.91
2022-08-29T04:06:40.267Z,11.96
2022-08-29T04:09:47.357Z,12.02
2022-08-29T04:12:54.258Z,12.09
2022-08-29T04:15:56.665Z,12.15
2022-08-29T04:18:58.950Z,12.20
2022-08-29T04:22:01.014Z,12.26
2022-08-29T04:25:04.781Z,12.32
2022-08-29T04:28:11.982Z,12.36
2022-08-29T04:31:23.045Z,12.42
2022-08-29T04:34:26.042Z,12.45
2022-08-29T04:37:32.882Z,12.45
2022-08-29T04:40:38.217Z,12.43
2022-08-29T04:43:42.896Z,12.44
2022-08-29T04:46:44.690Z,12.45
2022-08-29T04:49:46.426Z,12.50
2022-08-29T04:52:48.904Z,12.56
2022-08-29T04:56:06.518Z,12.64
2022-08-29T04:59:23.055Z,12.71
2022-08-29T05:02:25.668Z,12.84
2022-08-29T05:05:27.936Z,12.91
2022-08-29T05:08:30.092Z,13.00
2022-08-29T05:11:32.833Z,13.09
2022-08-29T05:14:35.095Z,13.18
2022-08-29T05:17:37.168Z,13.25
2022-08-29T05:20:43.839Z,13.34
2022-08-29T05:23:45.570Z,13.43
2022-08-29T05:26:47.268Z,13.54
2022-08-29T05:29:51.445Z,13.68
2022-08-29T05:32:55.008Z,13.81
2022-08-29T05:35:57.565Z,13.91
2022-08-29T05:39:01.106Z,13.99
2022-08-29T05:42:03.329Z,14.11
2022-08-29T05:45:05.995Z,14.22
2022-08-29T05:48:09.591Z,14.31
2022-08-29T05:51:19.562Z,14.41
2022-08-29T05:54:21.606Z,14.49
2022-08-29T05:57:25.856Z,14.57
2022-08-29T06:00:27.771Z,14.67
2022-08-29T06:03:29.567Z,14.71
2022-08-29T06:06:31.424Z,14.81
2022-08-29T06:09:33.381Z,14.86
2022-08-29T06:12:36.016Z,14.91
2022-08-29T06:15:37.980Z,14.95
2022-08-29T06:18:40.739Z,14.98
2022-08-29T06:21:42.417Z,15.01
2022-08-29T06:24:45.334Z,15.02
2022-08-29T06:27:48.924Z,15.09
2022-08-29T06:30:50.684Z,15.14
2022-08-29T06:33:54.696Z,15.18
2022-08-29T06:36:56.634Z,15.20
2022-08-29T06:39:58.387Z,15.27
2022-08-29T06:43:00.111Z,15.37
2022-08-29T06:46:01.988Z,15.50
2022-08-29T06:49:05.516Z,15.63
2022-08-29T06:52:07.215Z,15.83
2022-08-29T06:55:12.912Z,15.93
2022-08-29T06:58:18.807Z,15.96
2022-08-29T07:01:21.761Z,15.96
2022-08-29T07:04:26.611Z,15.93
2022-08-29T07:07:28.642Z,15.91
2022-08-29T07:10:35.654Z,15.96
2022-08-29T07:13:37.399Z,16.02
2022-08-29T07:16:41.107Z,16.08
2022-08-29T07:19:42.970Z,16.15
2022-08-29T07:22:47.522Z,16.26
2022-08-29T07:25:49.249Z,16.42
2022-08-29T07:28:54.013Z,16.62
2022-08-29T07:31:55.898Z,16.84
2022-08-29T07:34:57.915Z,17.02
2022-08-29T07:38:01.443Z,17.20
2022-08-29T07:41:08.850Z,17.37
2022-08-29T07:44:11.667Z,17.42
2022-08-29T07:47:13.375Z,17.55
2022-08-29T07:50:15.114Z,17.68
2022-08-29T07:53:17.636Z,17.76
2022-08-29T07:56:25.203Z,17.83
2022-08-29T07:59:27.110Z,17.86
2022-08-29T08:02:29.029Z,17.96
2022-08-29T08:05:33.761Z,18.07
2022-08-29T08:08:35.626Z,18.16
2022-08-29T08:11:43.683Z,18.31
2022-08-29T08:14:57.032Z,18.38
2022-08-29T08:17:58.772Z,18.39
2022-08-29T08:21:00.419Z,18.40
2022-08-29T08:24:02.587Z,18.33
2022-08-29T08:27:04.796Z,18.20
2022-08-29T08:30:07.197Z,18.14
2022-08-29T08:33:09.957Z,18.04
2022-08-29T08:36:30.949Z,18.00
2022-08-29T08:39:32.649Z,17.95
2022-08-29T08:42:42.583Z,17.99
2022-08-29T08:45:46.413Z,17.99
2022-08-29T08:48:49.749Z,17.93
2022-08-29T08:51:59.862Z,17.92
2022-08-29T08:55:07.412Z,17.88
2022-08-29T08:58:29.342Z,17.86
2022-08-29T09:01:43.404Z,17.80
2022-08-29T09:05:20.477Z,17.77
2022-08-29T09:08:58.678Z,17.68
2022-08-29T09:12:06.835Z,17.65
2022-08-29T09:15:20.257Z,17.58
2022-08-29T09:18:32.349Z,17.52
2022-08-29T09:21:48.643Z,17.52
2022-08-29T09:25:04.038Z,17.51
2022-08-29T09:28:07.932Z,17.50
2022-08-29T09:31:28.511Z,17.49
2022-08-29T09:34:57.416Z,17.47
2022-08-29T09:38:25.789Z,17.54
2022-08-29T09:41:31.164Z,17.62
2022-08-29T09:44:35.435Z,17.78
2022-08-29T09:47:37.329Z,17.84
2022-08-29T09:50:39.679Z,17.94
2022-08-29T09:53:42.844Z,18.11
2022-08-29T09:56:59.668Z,18.29
2022-08-29T10:00:12.431Z,18.43
2022-08-29T10:03:22.879Z,18.45
2022-08-29T10:06:32.591Z,18.51
2022-08-29T10:09:34.901Z,18.56
2022-08-29T10:13:15.206Z,18.69
2022-08-29T10:16:27.237Z,18.73
2022-08-29T10:19:34.289Z,18.88
2022-08-29T10:22:44.162Z,19.09
2022-08-29T10:25:46.329Z,19.33
2022-08-29T10:29:16.123Z,19.59
2022-08-29T10:32:49.264Z,19.79
2022-08-29T10:36:09.693Z,19.82
2022-08-29T10:39:17.921Z,19.88
2022-08-29T10:42:25.488Z,20.00
2022-08-29T10:46:00.218Z,20.08
2022-08-29T10:49:23.052Z,20.00
2022-08-29T10:53:06.298Z,19.94
2022-08-29T10:56:18.957Z,19.87
2022-08-29T10:59:58.267Z,19.88
2022-08-29T11:03:36.204Z,19.89
2022-08-29T11:06:43.925Z,20.05
2022-08-29T11:09:52.122Z,20.26
2022-08-29T11:13:01.411Z,20.43
2022-08-29T11:16:08.659Z,20.50
2022-08-29T11:19:27.408Z,20.56
2022-08-29T11:22:37.979Z,20.60
2022-08-29T11:25:42.017Z,20.72
2022-08-29T11:29:10.154Z,20.75
2022-08-29T11:32:38.874Z,20.71
2022-08-29T11:35:49.592Z,20.73
2022-08-29T11:39:20.157Z,20.69
2022-08-29T11:46:01.630Z,20.60
2022-08-29T11:49:32.084Z,20.68
2022-08-29T11:52:35.274Z,20.79
2022-08-29T11:55:43.243Z,20.96
2022-08-29T11:58:50.233Z,21.09
2022-08-29T12:02:01.074Z,21.37
2022-08-29T12:05:02.751Z,21.58
2022-08-29T12:08:36.440Z,21.58
2022-08-29T12:12:02.759Z,21.61
2022-08-29T12:15:26.415Z,21.83
2022-08-29T12:18:36.646Z,21.93
2022-08-29T12:21:39.254Z,21.92
2022-08-29T12:24:43.141Z,22.07
2022-08-29T12:28:07.084Z,22.25
2022-08-29T12:32:08.614Z,22.24
2022-08-29T12:35:31.339Z,22.18
2022-08-29T12:42:41.695Z,21.96
2022-08-29T12:45:50.644Z,21.80
2022-08-29T12:49:24.156Z,21.77
2022-08-29T12:52:30.502Z,21.77
2022-08-29T12:55:42.135Z,21.81
2022-08-29T12:58:47.152Z,21.82
2022-08-29T13:01:56.105Z,21.72
2022-08-29T13:04:59.545Z,21.59
2022-08-29T13:08:11.078Z,21.57
2022-08-29T13:11:21.450Z,21.54
2022-08-29T13:14:23.791Z,21.55
2022-08-29T13:17:37.276Z,21.44
2022-08-29T13:20:40.235Z,21.43
2022-08-29T13:23:45.965Z,21.64
2022-08-29T13:27:05.575Z,21.76
2022-08-29T13:30:08.469Z,21.77
2022-08-29T13:33:35.162Z,21.75
2022-08-29T13:37:10.608Z,21.66
2022-08-29T13:40:44.935Z,21.71
2022-08-29T13:43:48.996Z,21.83
2022-08-29T13:46:52.639Z,21.93
2022-08-29T13:49:59.887Z,21.98
2022-08-29T13:53:01.567Z,21.96
2022-08-29T13:56:04.094Z,21.99
2022-08-29T13:59:06.744Z,22.05
2022-08-29T14:02:10.043Z,22.08
2022-08-29T14:05:13.711Z,22.12
2022-08-29T14:08:15.956Z,22.15
2022-08-29T14:11:18.061Z,22.09
2022-08-29T14:14:19.995Z,22.02
2022-08-29T14:17:23.660Z,21.95
2022-08-29T14:20:25.722Z,21.86
2022-08-29T14:23:27.807Z,21.81
2022-08-29T14:26:29.464Z,21.80
2022-08-29T14:29:32.325Z,21.85
2022-08-29T14:32:34.111Z,22.00
2022-08-29T14:35:36.248Z,22.19
2022-08-29T14:38:44.091Z,22.31
2022-08-29T14:41:46.190Z,22.34
2022-08-29T14:44:48.053Z,22.28
2022-08-29T14:47:49.728Z,22.11
2022-08-29T14:50:51.408Z,22.01
2022-08-29T14:53:54.476Z,21.94
2022-08-29T14:56:56.498Z,21.91
2022-08-29T14:59:58.187Z,21.89
2022-08-29T15:03:00.323Z,21.96
2022-08-29T15:06:05.264Z,21.99
2022-08-29T15:09:07.060Z,21.96
2022-08-29T15:12:08.893Z,21.93
2022-08-29T15:15:11.469Z,21.92
2022-08-29T15:18:30.528Z,21.87
2022-08-29T15:21:36.081Z,21.91
2022-08-29T15:24:39.642Z,21.91
2022-08-29T15:27:41.910Z,21.88
2022-08-29T15:30:43.629Z,21.89
2022-08-29T15:33:45.329Z,21.91
2022-08-29T15:36:46.983Z,21.86
2022-08-29T15:39:50.608Z,21.81
2022-08-29T15:42:56.338Z,21.73
2022-08-29T15:45:59.810Z,21.68
2022-08-29T15:49:01.917Z,21.62
2022-08-29T15:52:03.770Z,21.63
2022-08-29T15:55:06.384Z,21.64
2022-08-29T15:58:08.090Z,21.64
2022-08-29T16:01:10.861Z,21.64
2022-08-29T16:04:15.076Z,21.64
2022-08-29T16:07:18.049Z,21.63
2022-08-29T16:10:19.854Z,21.59
2022-08-29T16:13:21.654Z,21.58
2022-08-29T16:16:24.409Z,21.55
2022-08-29T16:19:26.169Z,21.51
2022-08-29T16:22:28.503Z,21.52
2022-08-29T16:25:31.904Z,21.54
2022-08-29T16:28:33.807Z,21.57
2022-08-29T16:31:36.128Z,21.59
2022-08-29T16:34:38.401Z,21.56
2022-08-29T16:37:40.525Z,21.57
2022-08-29T16:40:42.250Z,21.51
2022-08-29T16:43:49.731Z,21.48
2022-08-29T16:46:51.907Z,21.41
2022-08-29T16:49:53.736Z,21.35
2022-08-29T16:52:55.983Z,21.27
2022-08-29T16:55:58.054Z,21.18
2022-08-29T16:59:00.219Z,21.09
2022-08-29T17:02:02.500Z,21.03
2022-08-29T17:05:04.786Z,20.94
2022-08-29T17:08:06.425Z,20.82
2022-08-29T17:11:08.172Z,20.75
2022-08-29T17:14:10.679Z,20.70
2022-08-29T17:17:12.313Z,20.58
2022-08-29T17:20:15.036Z,20.54
2022-08-29T17:23:16.670Z,20.48
2022-08-29T17:26:19.059Z,20.44
2022-08-29T17:29:20.706Z,20.36
2022-08-29T17:32:22.977Z,20.29
2022-08-29T17:35:24.687Z,20.20
2022-08-29T17:38:26.629Z,20.16
2022-08-29T17:41:28.272Z,20.08
2022-08-29T17:44:34.965Z,20.03
2022-08-29T17:47:37.042Z,19.96
2022-08-29T17:50:39.141Z,19.86
2022-08-29T17:53:40.935Z,19.80
2022-08-29T17:57:01.318Z,19.71
2022-08-29T18:00:05.588Z,19.59
2022-08-29T18:03:12.315Z,19.50
2022-08-29T18:06:15.228Z,19.41
2022-08-29T18:09:17.215Z,19.28
2022-08-29T18:12:20.339Z,19.21
2022-08-29T18:15:22.320Z,19.09
2022-08-29T18:18:25.386Z,18.99
2022-08-29T18:21:29.492Z,18.84
2022-08-29T18:24:31.213Z,18.74
2022-08-29T18:27:33.797Z,18.62
2022-08-29T18:30:35.682Z,18.54
2022-08-29T18:33:59.102Z,18.42
2022-08-29T18:36:59.079Z,18.28
2022-08-29T18:40:00.757Z,18.20
2022-08-29T18:43:02.578Z,18.08
2022-08-29T18:46:04.597Z,17.95
2022-08-29T18:49:06.741Z,17.86
2022-08-29T18:52:09.496Z,17.73
2022-08-29T18:55:15.721Z,17.65
2022-08-29T18:58:19.142Z,17.54
2022-08-29T19:01:27.622Z,17.44
2022-08-29T19:04:29.807Z,17.30
2022-08-29T19:07:31.532Z,17.23
2022-08-29T19:10:33.353Z,17.16
2022-08-29T19:13:35.406Z,17.07
2022-08-29T19:16:37.381Z,17.01
2022-08-29T19:19:57.688Z,16.94
2022-08-29T19:22:59.580Z,16.86
2022-08-29T19:26:03.440Z,16.79
2022-08-29T19:29:14.059Z,16.73
2022-08-29T19:32:15.767Z,16.60
2022-08-29T19:35:18.274Z,16.56
2022-08-29T19:38:22.981Z,16.51
2022-08-29T19:41:25.233Z,16.44
2022-08-29T19:44:27.013Z,16.36
2022-08-29T19:47:29.280Z,16.28
2022-08-29T19:50:31.058Z,16.22
2022-08-29T19:53:32.761Z,16.14
2022-08-29T19:56:37.212Z,16.07
2022-08-29T19:59:39.527Z,16.01
2022-08-29T20:02:45.821Z,15.97
2022-08-29T20:05:48.717Z,15.90
2022-08-29T20:08:50.656Z,15.86
2022-08-29T20:11:53.532Z,15.81
2022-08-29T20:14:56.463Z,15.73
2022-08-29T20:17:59.949Z,15.69
2022-08-29T20:21:01.696Z,15.63
2022-08-29T20:24:04.539Z,15.58
2022-08-29T20:27:07.535Z,15.56
2022-08-29T20:30:13.620Z,15.49
2022-08-29T20:33:15.691Z,15.42
2022-08-29T20:36:38.985Z,15.38
2022-08-29T20:39:46.765Z,15.35
2022-08-29T20:42:48.469Z,15.31
2022-08-29T20:45:50.642Z,15.34
2022-08-29T20:48:52.379Z,15.33
2022-08-29T20:51:54.088Z,15.32
2022-08-29T20:54:55.807Z,15.34
2022-08-29T20:57:57.555Z,15.34
2022-08-29T21:01:00.585Z,15.35
2022-08-29T21:04:23.384Z,15.36
2022-08-29T21:07:26.101Z,15.32
2022-08-29T21:10:28.847Z,15.31
2022-08-29T21:13:30.905Z,15.30
2022-08-29T21:16:32.643Z,15.31
2022-08-29T21:19:34.647Z,15.31
2022-08-29T21:22:36.262Z,15.32
2022-08-29T21:25:40.192Z,15.30
2022-08-29T21:28:44.372Z,15.30
2022-08-29T21:31:50.981Z,15.30
2022-08-29T21:34:52.699Z,15.24
2022-08-29T21:37:54.355Z,15.25
2022-08-29T21:40:58.717Z,15.23
2022-08-29T21:44:00.357Z,15.22
2022-08-29T21:47:02.912Z,15.25
2022-08-29T21:50:05.946Z,15.28
2022-08-29T21:53:07.680Z,15.25
2022-08-29T21:56:09.412Z,15.19
2022-08-29T21:59:12.404Z,15.14
2022-08-29T22:02:15.135Z,15.10
2022-08-29T22:05:17.161Z,15.02
2022-08-29T22:08:20.978Z,14.97
2022-08-29T22:11:38.013Z,14.94
2022-08-29T22:14:58.371Z,14.86
2022-08-29T22:18:00.136Z,14.77
2022-08-29T22:21:02.422Z,14.72
2022-08-29T22:24:04.842Z,14.66
2022-08-29T22:27:07.511Z,14.57
2022-08-29T22:30:09.957Z,14.48
2022-08-29T22:33:16.524Z,14.43
2022-08-29T22:36:19.679Z,14.39
2022-08-29T22:39:21.575Z,14.34
2022-08-29T22:42:23.772Z,14.28
2022-08-29T22:45:26.105Z,14.25
2022-08-29T22:48:27.881Z,14.23
2022-08-29T22:51:29.690Z,14.20
2022-08-29T22:54:37.191Z,14.14
2022-08-29T22:57:39.687Z,14.13
2022-08-29T23:00:41.464Z,14.11
2022-08-29T23:03:43.118Z,14.03
2022-08-29T23:06:44.912Z,14.02
2022-08-29T23:09:46.815Z,13.97
2022-08-29T23:12:50.569Z,13.95
2022-08-29T23:15:52.444Z,13.87
2022-08-29T23:18:54.241Z,13.84
2022-08-29T23:21:55.909Z,13.82
2022-08-29T23:24:59.122Z,13.79
2022-08-29T23:28:01.163Z,13.74
2022-08-29T23:31:03.652Z,13.73
2022-08-29T23:34:05.491Z,13.66
2022-08-29T23:37:07.543Z,13.61
2022-08-29T23:40:09.769Z,13.59
2022-08-29T23:43:11.788Z,13.56
2022-08-29T23:46:13.981Z,13.55
2022-08-29T23:49:15.764Z,13.51
2022-08-29T23:52:18.022Z,13.41
2022-08-29T23:55:19.756Z,13.35
2022-08-29T23:58:21.527Z,13.31
